createdAt,value
2022-10-16T00:01:37.150Z,96459.09
2022-10-16T00:04:05.260Z,96442.59
2022-10-16T00:06:34.618Z,96446.97
2022-10-16T00:09:02.324Z,96448.53
2022-10-16T00:11:34.182Z,96446.66
2022-10-16T00:14:03.947Z,96438.91
2022-10-16T00:16:32.091Z,96445.59
2022-10-16T00:19:01.663Z,96443.56
2022-10-16T00:21:31.433Z,96453.41
2022-10-16T00:24:03.135Z,96461.00
2022-10-16T00:26:33.091Z,96463.69
2022-10-16T00:29:00.965Z,96452.94
2022-10-16T00:31:28.716Z,96463.09
2022-10-16T00:33:56.491Z,96459.75
2022-10-16T00:36:26.338Z,96454.09
2022-10-16T00:38:55.620Z,96456.47
2022-10-16T00:41:26.777Z,96458.66
2022-10-16T00:43:56.122Z,96460.53
2022-10-16T00:46:27.670Z,96465.41
2022-10-16T00:49:01.677Z,96472.16
2022-10-16T00:51:37.993Z,96469.50
2022-10-16T00:54:10.206Z,96468.19
2022-10-16T00:56:39.569Z,96453.28
2022-10-16T00:59:13.909Z,96466.56
2022-10-16T01:01:41.875Z,96465.47
2022-10-16T01:04:09.608Z,96469.50
2022-10-16T01:06:45.158Z,96470.38
2022-10-16T01:09:19.704Z,96467.69
2022-10-16T01:12:00.520Z,96474.88
2022-10-16T01:14:34.080Z,96470.03
2022-10-16T01:17:08.599Z,96475.47
2022-10-16T01:19:52.370Z,96469.50
2022-10-16T01:22:22.276Z,96462.78
2022-10-16T01:24:52.178Z,96471.16
2022-10-16T01:27:25.099Z,96478.13
2022-10-16T01:29:57.735Z,96474.31
2022-10-16T01:32:32.856Z,96473.06
2022-10-16T01:35:06.139Z,96475.00
2022-10-16T01:37:39.523Z,96478.94
2022-10-16T01:40:12.834Z,96479.75
2022-10-16T01:42:45.231Z,96481.31
2022-10-16T01:45:18.951Z,96482.03
2022-10-16T01:47:48.771Z,96454.28
2022-10-16T01:50:18.176Z,96479.81
2022-10-16T01:52:49.528Z,96477.63
2022-10-16T01:55:31.311Z,96478.13
2022-10-16T01:58:03.454Z,96464.59
2022-10-16T02:00:31.464Z,96494.13
2022-10-16T02:03:03.578Z,96485.00
2022-10-16T02:05:33.341Z,96488.00
2022-10-16T02:08:04.671Z,96490.53
2022-10-16T02:10:34.341Z,96484.34
2022-10-16T02:13:08.198Z,96491.78
2022-10-16T02:15:35.960Z,96490.56
2022-10-16T02:18:04.800Z,96481.69
2022-10-16T02:20:38.672Z,96496.00
2022-10-16T02:23:10.975Z,96496.34
2022-10-16T02:25:45.529Z,96500.69
2022-10-16T02:28:20.029Z,96495.31
2022-10-16T02:30:53.131Z,96488.88
2022-10-16T02:33:23.253Z,96488.06
2022-10-16T02:35:52.798Z,96475.47
2022-10-16T02:38:22.408Z,96474.47
2022-10-16T02:40:50.633Z,96464.78
2022-10-16T02:43:20.592Z,96463.47
2022-10-16T02:45:51.166Z,96467.03
2022-10-16T02:48:18.900Z,96470.78
2022-10-16T02:50:46.575Z,96474.50
2022-10-16T02:53:14.334Z,96492.84
2022-10-16T02:55:42.127Z,96491.22
2022-10-16T02:58:09.887Z,96489.59
2022-10-16T03:00:38.951Z,96483.34
2022-10-16T03:03:06.755Z,96495.78
2022-10-16T03:05:34.438Z,96496.59
2022-10-16T03:08:02.264Z,96494.22
2022-10-16T03:10:30.097Z,96491.53
2022-10-16T03:12:57.779Z,96490.22
2022-10-16T03:15:25.607Z,96496.09
2022-10-16T03:17:54.671Z,96491.44
2022-10-16T03:20:22.629Z,96501.75
2022-10-16T03:22:50.363Z,96516.50
2022-10-16T03:25:19.831Z,96518.94
2022-10-16T03:27:47.590Z,96510.44
2022-10-16T03:30:15.244Z,96500.25
2022-10-16T03:32:42.913Z,96503.91
2022-10-16T03:35:12.152Z,96508.47
2022-10-16T03:37:40.007Z,96505.19
2022-10-16T03:40:08.746Z,96517.00
2022-10-16T03:42:36.448Z,96517.41
2022-10-16T03:45:04.121Z,96523.25
2022-10-16T03:47:33.910Z,96534.72
2022-10-16T03:50:02.045Z,96520.25
2022-10-16T03:52:31.422Z,96524.31
2022-10-16T03:54:59.063Z,96520.00
2022-10-16T03:57:27.588Z,96517.41
2022-10-16T03:59:55.561Z,96514.13
2022-10-16T04:02:23.217Z,96520.34
2022-10-16T04:04:51.027Z,96517.88
2022-10-16T04:07:18.708Z,96513.66
2022-10-16T04:09:47.754Z,96508.63
2022-10-16T04:12:15.470Z,96513.25
2022-10-16T04:14:45.132Z,96522.78
2022-10-16T04:17:12.826Z,96519.66
2022-10-16T04:19:40.516Z,96518.13
2022-10-16T04:22:08.214Z,96528.72
2022-10-16T04:24:35.934Z,96534.63
2022-10-16T04:27:05.321Z,96531.94
2022-10-16T04:29:33.168Z,96530.88
2022-10-16T04:32:00.848Z,96527.66
2022-10-16T04:34:28.767Z,96529.91
2022-10-16T04:36:56.566Z,96532.97
2022-10-16T04:39:24.245Z,96539.34
2022-10-16T04:41:51.985Z,96543.00
2022-10-16T04:44:21.067Z,96530.34
2022-10-16T04:46:48.751Z,96555.44
2022-10-16T04:49:16.474Z,96546.00
2022-10-16T04:51:44.199Z,96547.06
2022-10-16T04:54:12.186Z,96551.72
2022-10-16T04:56:47.506Z,96559.03
2022-10-16T04:59:15.787Z,96534.97
2022-10-16T05:01:45.024Z,96554.63
2022-10-16T05:04:12.904Z,96562.44
2022-10-16T05:06:40.999Z,96556.69
2022-10-16T05:09:09.169Z,96563.91
2022-10-16T05:11:37.116Z,96554.38
2022-10-16T05:14:05.056Z,96558.72
2022-10-16T05:16:32.903Z,96561.94
2022-10-16T05:19:26.219Z,96557.97
2022-10-16T05:21:49.696Z,96557.81
2022-10-16T05:24:17.387Z,96536.56
2022-10-16T05:26:45.242Z,96561.47
2022-10-16T05:29:13.048Z,96553.50
2022-10-16T05:31:40.796Z,96555.47
2022-10-16T05:34:09.900Z,96547.34
2022-10-16T05:36:37.739Z,96550.75
2022-10-16T05:39:05.705Z,96559.91
2022-10-16T05:41:33.428Z,96557.31
2022-10-16T05:44:01.272Z,96552.84
2022-10-16T05:46:28.973Z,96565.38
2022-10-16T05:48:56.727Z,96559.53
2022-10-16T05:51:25.883Z,96561.16
2022-10-16T05:53:54.673Z,96518.94
2022-10-16T05:56:22.474Z,96564.91
2022-10-16T05:58:50.266Z,96569.13
2022-10-16T06:01:19.954Z,96551.22
2022-10-16T06:03:47.763Z,96575.88
2022-10-16T06:06:17.337Z,96575.94
2022-10-16T06:08:47.388Z,96556.09
2022-10-16T06:11:18.616Z,96581.84
2022-10-16T06:13:46.944Z,96571.19
2022-10-16T06:16:15.196Z,96561.81
2022-10-16T06:18:42.944Z,96549.63
2022-10-16T06:21:11.955Z,96551.88
2022-10-16T06:23:40.105Z,96546.44
2022-10-16T06:26:10.613Z,96570.19
2022-10-16T06:28:39.231Z,96565.53
2022-10-16T06:31:08.872Z,96571.34
2022-10-16T06:33:37.001Z,96579.88
2022-10-16T06:36:05.293Z,96596.63
2022-10-16T06:38:33.312Z,96588.84
2022-10-16T06:41:01.395Z,96604.19
2022-10-16T06:43:33.006Z,96598.91
2022-10-16T06:46:02.233Z,96598.59
2022-10-16T06:48:30.921Z,96601.44
2022-10-16T06:51:00.414Z,96617.75
2022-10-16T06:53:39.597Z,96617.91
2022-10-16T06:56:13.446Z,96614.34
2022-10-16T06:58:43.712Z,96630.09
2022-10-16T07:01:12.429Z,96634.00
2022-10-16T07:03:41.432Z,96639.34
2022-10-16T07:06:11.082Z,96644.41
2022-10-16T07:08:40.501Z,96636.94
2022-10-16T07:11:10.832Z,96647.75
2022-10-16T07:13:39.893Z,96637.72
2022-10-16T07:16:11.032Z,96653.56
2022-10-16T07:18:39.999Z,96647.19
2022-10-16T07:21:08.535Z,96649.31
2022-10-16T07:23:36.586Z,96656.31
2022-10-16T07:26:18.870Z,96657.59
2022-10-16T07:28:46.802Z,96663.41
2022-10-16T07:31:17.894Z,96669.72
2022-10-16T07:33:49.060Z,96670.53
2022-10-16T07:36:18.675Z,96666.25
2022-10-16T07:38:48.681Z,96648.03
2022-10-16T07:41:20.033Z,96652.81
2022-10-16T07:43:49.403Z,96664.28
2022-10-16T07:46:19.151Z,96669.78
2022-10-16T07:48:48.918Z,96686.88
2022-10-16T07:51:20.562Z,96672.16
2022-10-16T07:53:48.935Z,96683.09
2022-10-16T07:56:18.415Z,96681.53
2022-10-16T07:58:46.684Z,96689.53
2022-10-16T08:01:16.910Z,96674.75
2022-10-16T08:03:48.860Z,96676.34
2022-10-16T08:06:16.972Z,96684.00
2022-10-16T08:08:44.970Z,96669.91
2022-10-16T08:11:13.076Z,96677.78
2022-10-16T08:13:40.809Z,96677.31
2022-10-16T08:16:10.798Z,96684.59
2022-10-16T08:18:39.658Z,96687.09
2022-10-16T08:21:18.590Z,96674.47
2022-10-16T08:23:54.518Z,96660.97
2022-10-16T08:26:25.206Z,96672.69
2022-10-16T08:28:53.463Z,96672.97
2022-10-16T08:31:21.455Z,96677.91
2022-10-16T08:33:49.307Z,96680.59
2022-10-16T08:36:18.763Z,96693.25
2022-10-16T08:38:50.626Z,96687.13
2022-10-16T08:41:59.178Z,96701.22
2022-10-16T08:44:39.456Z,96685.31
2022-10-16T08:47:14.988Z,96712.59
2022-10-16T08:49:45.088Z,96715.72
2022-10-16T08:52:16.102Z,96690.78
2022-10-16T08:54:47.968Z,96633.72
2022-10-16T08:57:19.837Z,96707.53
2022-10-16T08:59:51.027Z,96708.69
2022-10-16T09:02:29.318Z,96712.66
2022-10-16T09:05:17.827Z,96683.22
2022-10-16T09:07:53.243Z,96706.22
2022-10-16T09:10:34.407Z,96704.50
2022-10-16T09:13:16.647Z,96715.06
2022-10-16T09:15:57.806Z,96719.97
2022-10-16T09:18:32.623Z,96709.00
2022-10-16T09:21:07.954Z,96705.69
2022-10-16T09:23:39.328Z,96722.56
2022-10-16T09:26:12.147Z,96718.50
2022-10-16T09:28:40.161Z,96723.66
2022-10-16T09:31:11.080Z,96725.78
2022-10-16T09:33:41.286Z,96734.44
2022-10-16T09:36:10.266Z,96737.72
2022-10-16T09:38:40.513Z,96731.75
2022-10-16T09:41:18.400Z,96736.09
2022-10-16T09:43:51.973Z,96737.34
2022-10-16T09:46:27.485Z,96724.03
2022-10-16T09:48:58.082Z,96714.56
2022-10-16T09:51:27.778Z,96712.09
2022-10-16T09:54:00.506Z,96716.91
2022-10-16T09:56:30.639Z,96720.41
2022-10-16T09:58:59.835Z,96719.22
2022-10-16T10:01:33.992Z,96720.00
2022-10-16T10:04:04.503Z,96728.88
2022-10-16T10:06:35.182Z,96724.84
2022-10-16T10:09:07.972Z,96728.03
2022-10-16T10:11:51.400Z,96725.50
2022-10-16T10:14:22.712Z,96720.47
2022-10-16T10:16:53.208Z,96707.69
2022-10-16T10:19:22.568Z,96720.53
2022-10-16T10:21:51.409Z,96719.78
2022-10-16T10:24:21.627Z,96705.47
2022-10-16T10:26:58.019Z,96700.72
2022-10-16T10:29:43.966Z,96698.91
2022-10-16T10:32:25.435Z,96698.91
2022-10-16T10:35:05.057Z,96713.63
2022-10-16T10:37:48.453Z,96707.50
2022-10-16T10:40:31.443Z,96710.53
2022-10-16T10:43:04.589Z,96709.34
2022-10-16T10:45:43.569Z,96707.22
2022-10-16T10:51:03.427Z,96700.56
2022-10-16T10:53:38.697Z,96709.41
2022-10-16T10:56:23.928Z,96706.41
2022-10-16T10:59:10.916Z,96697.63
2022-10-16T11:01:47.452Z,96699.91
2022-10-16T11:04:40.961Z,96693.00
2022-10-16T11:07:16.035Z,96688.41
2022-10-16T11:09:48.839Z,96693.31
2022-10-16T11:12:21.945Z,96693.28
2022-10-16T11:14:58.275Z,96690.13
2022-10-16T11:17:32.587Z,96690.56
2022-10-16T11:20:07.245Z,96680.28
2022-10-16T11:22:39.895Z,96667.84
2022-10-16T11:25:15.580Z,96678.78
2022-10-16T11:27:49.633Z,96670.47
2022-10-16T11:30:22.188Z,96669.72
2022-10-16T11:33:05.368Z,96663.75
2022-10-16T11:35:42.003Z,96669.28
2022-10-16T11:38:16.869Z,96662.53
2022-10-16T11:40:48.623Z,96657.75
2022-10-16T11:43:24.045Z,96655.13
2022-10-16T11:45:55.187Z,96653.34
2022-10-16T11:48:30.396Z,96654.75
2022-10-16T11:51:04.564Z,96664.00
2022-10-16T11:53:46.342Z,96643.81
2022-10-16T11:56:14.723Z,96656.09
2022-10-16T11:58:54.884Z,96643.81
2022-10-16T12:01:29.860Z,96644.53
2022-10-16T12:04:08.237Z,96637.72
2022-10-16T12:06:42.682Z,96649.56
2022-10-16T12:09:22.656Z,96642.78
2022-10-16T12:11:50.452Z,96632.91
2022-10-16T12:14:42.887Z,96635.75
2022-10-16T12:17:29.246Z,96631.59
2022-10-16T12:20:01.865Z,96619.31
2022-10-16T12:22:32.131Z,96621.00
2022-10-16T12:25:00.592Z,96624.72
2022-10-16T12:27:31.738Z,96623.66
2022-10-16T12:30:02.660Z,96628.28
2022-10-16T12:32:49.181Z,96617.50
2022-10-16T12:35:22.931Z,96615.66
2022-10-16T12:37:51.948Z,96622.38
2022-10-16T12:40:30.051Z,96613.50
2022-10-16T12:42:57.833Z,96615.16
2022-10-16T12:45:30.087Z,96612.03
2022-10-16T12:47:58.561Z,96612.00
2022-10-16T12:50:33.637Z,96614.78
2022-10-16T12:53:02.895Z,96613.63
2022-10-16T12:55:44.406Z,96612.84
2022-10-16T12:58:26.537Z,96613.47
2022-10-16T13:00:59.324Z,96619.06
2022-10-16T13:03:50.289Z,96614.50
2022-10-16T13:06:30.588Z,96607.38
2022-10-16T13:09:22.407Z,96615.69
2022-10-16T13:12:02.469Z,96615.06
2022-10-16T13:14:50.165Z,96617.84
2022-10-16T13:17:27.162Z,96617.16
2022-10-16T13:20:04.381Z,96620.63
2022-10-16T13:22:39.794Z,96623.56
2022-10-16T13:25:22.073Z,96619.81
2022-10-16T13:27:56.215Z,96616.41
2022-10-16T13:30:30.805Z,96621.69
2022-10-16T13:33:04.373Z,96619.00
2022-10-16T13:35:34.311Z,96626.72
2022-10-16T13:38:07.328Z,96625.41
2022-10-16T13:40:35.834Z,96621.03
2022-10-16T13:43:03.924Z,96626.94
2022-10-16T13:45:31.587Z,96628.56
2022-10-16T13:48:13.176Z,96632.84
2022-10-16T13:50:40.906Z,96625.78
2022-10-16T13:53:09.212Z,96629.66
2022-10-16T13:55:36.924Z,96622.94
2022-10-16T13:58:10.737Z,96631.78
2022-10-16T14:03:17.201Z,96640.03
2022-10-16T14:05:49.939Z,96638.50
2022-10-16T14:08:18.185Z,96631.91
2022-10-16T14:10:51.576Z,96633.41
2022-10-16T14:13:23.909Z,96633.72
2022-10-16T14:15:55.173Z,96629.19
2022-10-16T14:18:29.861Z,96639.94
2022-10-16T14:21:06.624Z,96636.00
2022-10-16T14:23:38.402Z,96633.81
2022-10-16T14:26:18.447Z,96624.56
2022-10-16T14:28:47.777Z,96625.91
2022-10-16T14:31:30.363Z,96639.72
2022-10-16T14:34:00.106Z,96624.25
2022-10-16T14:36:29.270Z,96644.81
2022-10-16T14:39:02.520Z,96642.56
2022-10-16T14:41:31.571Z,96639.28
2022-10-16T14:44:04.865Z,96645.00
2022-10-16T14:46:36.668Z,96639.06
2022-10-16T14:49:20.803Z,96628.91
2022-10-16T14:51:49.257Z,96650.56
2022-10-16T14:54:18.459Z,96652.44
2022-10-16T14:56:49.768Z,96661.66
2022-10-16T14:59:22.066Z,96659.84
2022-10-16T15:01:49.998Z,96668.28
2022-10-16T15:04:19.603Z,96658.88
2022-10-16T15:06:47.361Z,96664.84
2022-10-16T15:09:15.189Z,96674.28
2022-10-16T15:11:43.972Z,96675.38
2022-10-16T15:16:42.796Z,96686.06
2022-10-16T15:19:10.482Z,96684.78
2022-10-16T15:21:39.535Z,96674.47
2022-10-16T15:24:16.487Z,96684.44
2022-10-16T15:26:47.891Z,96692.00
2022-10-16T15:29:15.570Z,96694.19
2022-10-16T15:31:43.573Z,96685.94
2022-10-16T15:34:14.008Z,96688.19
2022-10-16T15:36:43.242Z,96691.00
2022-10-16T15:39:15.612Z,96691.41
2022-10-16T15:41:43.951Z,96690.50
2022-10-16T15:44:11.758Z,96693.25
2022-10-16T15:46:39.481Z,96685.56
2022-10-16T15:49:07.882Z,96695.38
2022-10-16T15:51:35.548Z,96696.50
2022-10-16T15:54:04.751Z,96697.59
2022-10-16T15:56:34.316Z,96697.91
2022-10-16T15:59:02.928Z,96705.22
2022-10-16T16:01:33.871Z,96705.25
2022-10-16T16:04:02.974Z,96706.84
2022-10-16T16:06:35.306Z,96704.72
2022-10-16T16:09:04.518Z,96705.25
2022-10-16T16:11:34.479Z,96704.47
2022-10-16T16:14:02.142Z,96709.91
2022-10-16T16:16:29.870Z,96714.22
2022-10-16T16:18:58.852Z,96708.28
2022-10-16T16:21:26.534Z,96717.22
2022-10-16T16:23:54.329Z,96711.25
2022-10-16T16:26:27.638Z,96720.72
2022-10-16T16:28:57.548Z,96714.78
2022-10-16T16:31:27.138Z,96721.03
2022-10-16T16:33:55.405Z,96723.16
2022-10-16T16:38:51.735Z,96723.97
2022-10-16T16:41:20.665Z,96740.19
2022-10-16T16:43:52.010Z,96746.41
2022-10-16T16:46:20.551Z,96728.78
2022-10-16T16:48:50.911Z,96749.09
2022-10-16T16:51:20.761Z,96751.22
2022-10-16T16:53:50.835Z,96752.81
2022-10-16T16:56:19.535Z,96750.13
2022-10-16T16:58:47.716Z,96759.56
2022-10-16T17:01:21.360Z,96759.81
2022-10-16T17:03:51.618Z,96754.94
2022-10-16T17:06:20.992Z,96761.97
2022-10-16T17:08:49.866Z,96767.38
2022-10-16T17:11:19.618Z,96779.72
2022-10-16T17:13:49.946Z,96790.47
2022-10-16T17:16:22.457Z,96785.59
2022-10-16T17:18:50.296Z,96787.44
2022-10-16T17:21:17.993Z,96791.44
2022-10-16T17:23:45.824Z,96791.66
2022-10-16T17:26:15.191Z,96798.91
2022-10-16T17:28:43.233Z,96807.69
2022-10-16T17:31:13.248Z,96811.69
2022-10-16T17:33:42.871Z,96819.19
2022-10-16T17:36:11.803Z,96821.81
2022-10-16T17:38:39.549Z,96820.16
2022-10-16T17:41:15.044Z,96827.13
2022-10-16T17:43:43.349Z,96829.25
2022-10-16T17:46:12.049Z,96822.75
2022-10-16T17:48:40.047Z,96828.44
2022-10-16T17:51:10.991Z,96834.13
2022-10-16T17:53:39.779Z,96835.16
2022-10-16T17:56:09.504Z,96828.13
2022-10-16T17:58:37.625Z,96842.78
2022-10-16T18:01:13.602Z,96840.56
2022-10-16T18:03:41.369Z,96847.25
2022-10-16T18:06:12.715Z,96850.44
2022-10-16T18:08:40.410Z,96855.53
2022-10-16T18:11:08.142Z,96860.63
2022-10-16T18:13:35.830Z,96860.28
2022-10-16T18:16:04.685Z,96856.75
2022-10-16T18:18:32.403Z,96863.53
2022-10-16T18:21:01.792Z,96855.06
2022-10-16T18:23:31.510Z,96867.72
2022-10-16T18:25:59.221Z,96874.19
2022-10-16T18:28:27.100Z,96867.66
2022-10-16T18:30:57.873Z,96880.09
2022-10-16T18:33:25.725Z,96882.53
2022-10-16T18:35:54.384Z,96886.53
2022-10-16T18:38:22.125Z,96886.41
2022-10-16T18:40:51.225Z,96887.91
2022-10-16T18:43:18.902Z,96892.66
2022-10-16T18:45:56.561Z,96877.97
2022-10-16T18:48:24.526Z,96888.91
2022-10-16T18:50:52.571Z,96890.22
2022-10-16T18:53:21.091Z,96895.88
2022-10-16T18:56:00.268Z,96889.94
2022-10-16T18:58:27.967Z,96894.50
2022-10-16T19:00:55.670Z,96888.47
2022-10-16T19:03:23.516Z,96886.34
2022-10-16T19:05:51.215Z,96898.81
2022-10-16T19:08:18.902Z,96890.06
2022-10-16T19:10:46.566Z,96899.81
2022-10-16T19:13:15.635Z,96905.19
2022-10-16T19:15:49.811Z,96902.66
2022-10-16T19:18:27.094Z,96906.13
2022-10-16T19:20:55.139Z,96912.84
2022-10-16T19:23:23.223Z,96913.38
2022-10-16T19:25:50.931Z,96915.75
2022-10-16T19:28:20.104Z,96925.13
2022-10-16T19:30:48.515Z,96923.66
2022-10-16T19:33:16.172Z,96924.50
2022-10-16T19:35:43.904Z,96928.28
2022-10-16T19:38:11.594Z,96931.81
2022-10-16T19:40:39.312Z,96934.19
2022-10-16T19:43:07.032Z,96905.56
2022-10-16T19:45:36.661Z,96939.19
2022-10-16T19:48:04.771Z,96942.09
2022-10-16T19:50:32.656Z,96944.06
2022-10-16T19:53:00.347Z,96943.31
2022-10-16T19:55:28.027Z,96949.09
2022-10-16T19:57:55.744Z,96946.91
2022-10-16T20:00:23.429Z,96934.03
2022-10-16T20:02:52.507Z,96945.22
2022-10-16T20:05:20.361Z,96950.25
2022-10-16T20:07:48.159Z,96953.03
2022-10-16T20:10:15.975Z,96953.66
2022-10-16T20:12:43.902Z,96956.44
2022-10-16T20:15:12.214Z,96950.28
2022-10-16T20:17:39.880Z,96962.66
2022-10-16T20:20:09.898Z,96967.69
2022-10-16T20:22:40.313Z,96968.19
2022-10-16T20:25:10.136Z,96968.69
2022-10-16T20:27:38.090Z,96977.31
2022-10-16T20:30:06.541Z,96983.84
2022-10-16T20:32:34.415Z,96987.50
2022-10-16T20:35:04.443Z,96985.69
2022-10-16T20:37:38.563Z,96980.59
2022-10-16T20:40:07.513Z,96978.59
2022-10-16T20:42:35.150Z,96986.44
2022-10-16T20:45:02.998Z,96991.22
2022-10-16T20:47:30.673Z,96995.59
2022-10-16T20:49:58.416Z,96998.03
2022-10-16T20:52:26.192Z,97000.13
2022-10-16T20:54:55.394Z,96998.28
2022-10-16T20:57:23.144Z,97007.16
2022-10-16T20:59:54.946Z,97009.16
2022-10-16T21:04:55.662Z,97006.56
2022-10-16T21:07:23.391Z,97016.88
2022-10-16T21:09:51.329Z,97016.38
2022-10-16T21:12:20.518Z,97013.34
2022-10-16T21:15:09.845Z,97019.38
2022-10-16T21:17:35.896Z,97028.75
2022-10-16T21:20:03.879Z,97033.56
2022-10-16T21:22:32.325Z,97037.88
2022-10-16T21:25:00.036Z,97026.19
2022-10-16T21:27:29.066Z,97035.09
2022-10-16T21:29:56.750Z,97046.03
2022-10-16T21:32:24.826Z,97033.09
2022-10-16T21:34:52.773Z,97040.56
2022-10-16T21:37:20.433Z,97036.34
2022-10-16T21:39:48.174Z,97048.88
2022-10-16T21:42:15.868Z,97042.19
2022-10-16T21:44:44.892Z,97045.38
2022-10-16T21:47:12.648Z,97040.00
2022-10-16T21:49:40.439Z,97043.50
2022-10-16T21:52:08.143Z,97041.94
2022-10-16T21:54:35.861Z,97037.50
2022-10-16T21:59:32.366Z,97043.81
2022-10-16T22:02:03.090Z,97040.09
2022-10-16T22:04:30.878Z,97049.78
2022-10-16T22:06:58.577Z,97050.03
2022-10-16T22:09:26.330Z,97050.38
2022-10-16T22:11:54.013Z,97050.69
2022-10-16T22:14:22.528Z,97055.59
2022-10-16T22:16:51.330Z,97051.63
2022-10-16T22:19:22.156Z,97063.44
2022-10-16T22:21:51.767Z,97050.75
2022-10-16T22:24:20.005Z,97054.34
2022-10-16T22:26:48.561Z,97052.09
2022-10-16T22:29:17.266Z,97052.34
2022-10-16T22:31:45.320Z,97036.25
2022-10-16T22:34:14.639Z,97046.72
2022-10-16T22:36:43.922Z,97049.19
2022-10-16T22:39:11.722Z,97030.00
2022-10-16T22:41:39.488Z,97045.06
2022-10-16T22:44:07.250Z,97044.84
2022-10-16T22:46:34.888Z,97046.69
2022-10-16T22:49:02.580Z,97043.69
2022-10-16T22:51:30.748Z,97042.16
2022-10-16T22:54:00.152Z,97059.69
2022-10-16T22:56:28.030Z,97059.00
2022-10-16T22:58:55.727Z,97050.50
2022-10-16T23:01:26.895Z,97049.09
2022-10-16T23:03:54.658Z,97046.28
2022-10-16T23:06:22.538Z,97043.59
2022-10-16T23:08:52.912Z,97043.47
2022-10-16T23:11:22.905Z,97049.88
2022-10-16T23:13:50.769Z,97052.22
2022-10-16T23:16:21.180Z,97057.88
2022-10-16T23:18:49.561Z,97035.91
2022-10-16T23:21:19.292Z,97049.69
2022-10-16T23:23:47.060Z,97057.03
2022-10-16T23:26:18.650Z,97052.16
2022-10-16T23:28:48.040Z,97050.34
2022-10-16T23:31:16.733Z,97047.91
2022-10-16T23:33:45.245Z,97051.09
2022-10-16T23:36:15.236Z,97040.91
2022-10-16T23:38:43.290Z,97058.44
2022-10-16T23:41:12.041Z,97055.53
2022-10-16T23:43:40.139Z,97059.91
2022-10-16T23:46:10.628Z,97058.88
2022-10-16T23:48:39.241Z,97065.63
2022-10-16T23:51:07.576Z,97072.06
2022-10-16T23:53:35.247Z,97081.38
2022-10-16T23:56:03.013Z,97087.53
2022-10-16T23:58:30.679Z,97079.44
